Time;durP1;ratioP1;P1;durP2;ratioP2;P2;SDS_P1;SDS_P2;PMS_P1;PMS_P2;Temp;Humidity;BMP_temperature;BMP_pressure;BME280_temperature;BME280_humidity;BME280_pressure;Samples;Min_cycle;Max_cycle;Signal;HPM_P1;HPM_P2
2022/06/21 00:02:13;;;;;;;16.03;15.00;;;10.30;99.90;;;;;;5059252;28;20586;-65
2022/06/21 00:04:41;;;;;;;16.50;15.10;;;10.30;99.90;;;;;;5050685;28;20485;-66
2022/06/21 00:07:12;;;;;;;17.87;16.27;;;10.20;99.90;;;;;;5054106;28;20470;-65
2022/06/21 00:09:40;;;;;;;17.60;16.17;;;10.00;99.90;;;;;;5055001;28;20837;-66
2022/06/21 00:12:10;;;;;;;16.67;15.23;;;10.00;99.90;;;;;;5053395;28;20522;-67
2022/06/21 00:14:37;;;;;;;15.77;14.77;;;10.00;99.90;;;;;;5051378;28;20467;-66
2022/06/21 00:17:04;;;;;;;16.57;15.23;;;10.00;99.90;;;;;;5054163;28;20468;-64
2022/06/21 00:19:33;;;;;;;17.53;16.37;;;9.90;99.90;;;;;;5050856;28;20484;-65
2022/06/21 00:22:00;;;;;;;18.27;16.63;;;9.90;99.90;;;;;;5054244;28;20723;-68
2022/06/21 00:24:28;;;;;;;17.70;16.20;;;9.90;99.90;;;;;;5055260;28;20451;-67
2022/06/21 00:26:56;;;;;;;17.80;16.47;;;9.80;99.90;;;;;;5053729;28;20471;-65
2022/06/21 00:29:22;;;;;;;17.70;16.57;;;9.70;99.90;;;;;;5054755;28;20459;-66
2022/06/21 00:31:50;;;;;;;18.60;17.40;;;9.70;99.90;;;;;;5053125;28;20517;-65
2022/06/21 00:34:20;;;;;;;17.80;16.67;;;9.60;99.90;;;;;;5054775;28;20458;-65
2022/06/21 00:36:49;;;;;;;18.80;17.50;;;9.60;99.90;;;;;;5052206;28;20470;-66
2022/06/21 00:39:18;;;;;;;19.93;18.53;;;9.60;99.90;;;;;;5055004;28;20500;-64
2022/06/21 00:41:49;;;;;;;20.47;18.90;;;9.70;99.90;;;;;;5061127;28;20463;-65
2022/06/21 00:44:20;;;;;;;19.07;17.80;;;9.70;99.90;;;;;;5057274;28;20481;-67
2022/06/21 00:46:50;;;;;;;18.37;17.00;;;9.60;99.90;;;;;;5052324;28;20464;-67
2022/06/21 00:49:23;;;;;;;19.50;17.80;;;9.60;99.90;;;;;;5054549;28;20456;-66
2022/06/21 00:51:57;;;;;;;19.67;18.10;;;9.60;99.90;;;;;;5057334;28;20884;-67
2022/06/21 00:54:27;;;;;;;19.17;17.90;;;9.60;99.90;;;;;;5057339;28;20465;-65
2022/06/21 00:56:58;;;;;;;19.07;17.87;;;9.50;99.90;;;;;;5050507;28;20536;-66
2022/06/21 00:59:27;;;;;;;19.63;18.23;;;9.50;99.90;;;;;;5057837;28;20456;-66
2022/06/21 01:01:58;;;;;;;19.10;17.90;;;9.40;99.90;;;;;;5054983;28;20464;-66
2022/06/21 01:04:30;;;;;;;21.00;19.40;;;9.40;99.90;;;;;;5053194;28;20490;-66
2022/06/21 01:07:01;;;;;;;19.87;18.57;;;9.50;99.90;;;;;;5050193;28;20484;-66
2022/06/21 01:09:32;;;;;;;21.03;19.10;;;9.60;99.90;;;;;;5062100;28;20482;-66
2022/06/21 01:12:05;;;;;;;20.90;18.87;;;9.60;99.90;;;;;;5059234;28;20452;-67
2022/06/21 01:14:35;;;;;;;19.80;18.60;;;9.60;99.90;;;;;;5057798;28;20579;-67
2022/06/21 01:17:02;;;;;;;20.53;19.03;;;9.50;99.90;;;;;;5056567;28;20463;-66
2022/06/21 01:19:38;;;;;;;19.93;18.33;;;9.40;99.90;;;;;;5058259;28;20462;-67
2022/06/21 01:22:20;;;;;;;21.20;19.40;;;9.40;99.90;;;;;;5050217;28;20492;-66
2022/06/21 01:24:57;;;;;;;20.50;19.00;;;9.40;99.90;;;;;;5059841;28;20460;-67
2022/06/21 01:27:25;;;;;;;19.57;18.27;;;9.40;99.90;;;;;;5059816;28;20463;-66
2022/06/21 01:29:54;;;;;;;21.00;19.60;;;9.40;99.90;;;;;;5062326;28;20463;-66
2022/06/21 01:32:22;;;;;;;20.60;19.10;;;9.40;99.90;;;;;;5055181;28;20462;-65
2022/06/21 01:34:49;;;;;;;20.13;18.73;;;9.40;99.90;;;;;;5059377;28;20746;-66
2022/06/21 01:37:20;;;;;;;20.40;19.00;;;9.40;99.90;;;;;;5057692;28;20470;-67
2022/06/21 01:39:52;;;;;;;21.03;19.33;;;9.40;99.90;;;;;;5057188;28;20456;-65
2022/06/21 01:42:21;;;;;;;20.53;18.93;;;9.40;99.90;;;;;;5057683;28;20468;-67
2022/06/21 01:44:53;;;;;;;20.43;18.93;;;9.20;99.90;;;;;;5053933;28;20458;-67
2022/06/21 01:47:26;;;;;;;22.03;20.30;;;9.10;99.90;;;;;;5061867;28;20472;-69
2022/06/21 01:49:56;;;;;;;21.37;19.97;;;9.10;99.90;;;;;;5055607;28;20456;-69
2022/06/21 01:52:27;;;;;;;21.77;20.17;;;9.10;99.90;;;;;;5056389;28;20471;-68
2022/06/21 01:55:06;;;;;;;20.33;18.90;;;9.10;99.90;;;;;;5057485;28;21011;-69
2022/06/21 01:57:34;;;;;;;20.50;19.20;;;9.00;99.90;;;;;;5048719;28;20463;-66
2022/06/21 02:00:06;;;;;;;20.77;19.37;;;8.80;99.90;;;;;;5054212;28;20477;-66
2022/06/21 02:02:37;;;;;;;21.80;20.00;;;8.90;99.90;;;;;;5057557;28;20465;-65
2022/06/21 02:05:08;;;;;;;21.33;19.77;;;9.00;99.90;;;;;;5056913;28;20459;-66
2022/06/21 02:07:42;;;;;;;19.83;18.70;;;9.00;99.90;;;;;;5053954;28;20466;-68
2022/06/21 02:10:17;;;;;;;22.57;20.37;;;8.90;99.90;;;;;;5057924;28;20494;-65
2022/06/21 02:12:49;;;;;;;20.93;19.13;;;8.90;99.90;;;;;;5058177;28;20482;-65
2022/06/21 02:15:26;;;;;;;20.47;19.07;;;8.80;99.90;;;;;;5061319;28;20994;-66
2022/06/21 02:17:56;;;;;;;21.43;19.83;;;8.60;99.90;;;;;;5052396;28;20455;-67
2022/06/21 02:20:31;;;;;;;21.13;19.40;;;8.50;99.90;;;;;;5056835;28;20479;-66
2022/06/21 02:22:58;;;;;;;20.97;19.63;;;8.40;99.90;;;;;;5054971;28;20544;-65
2022/06/21 02:25:26;;;;;;;21.63;19.83;;;8.30;99.90;;;;;;5061312;28;20467;-66
2022/06/21 02:27:59;;;;;;;20.57;19.13;;;8.20;99.90;;;;;;5053971;28;20466;-65
2022/06/21 02:30:29;;;;;;;21.57;20.07;;;8.20;99.90;;;;;;5054267;28;20467;-66
2022/06/21 02:32:58;;;;;;;22.37;20.83;;;8.10;99.90;;;;;;5053262;28;20468;-68
2022/06/21 02:35:29;;;;;;;22.60;20.80;;;8.20;99.90;;;;;;5054671;28;20478;-68
2022/06/21 02:37:59;;;;;;;21.93;20.30;;;8.30;99.90;;;;;;5056040;28;20465;-69
2022/06/21 02:40:32;;;;;;;21.40;19.80;;;8.30;99.90;;;;;;5053314;28;20474;-69
2022/06/21 02:43:03;;;;;;;20.90;19.60;;;8.30;99.90;;;;;;5056638;28;20459;-66
2022/06/21 02:45:36;;;;;;;20.70;19.37;;;8.20;99.90;;;;;;5055621;28;20470;-65
2022/06/21 02:48:08;;;;;;;20.80;19.43;;;8.20;99.90;;;;;;5056597;28;20545;-65
2022/06/21 02:50:40;;;;;;;21.80;19.83;;;8.10;99.90;;;;;;5056795;28;20527;-69
2022/06/21 02:53:15;;;;;;;21.93;20.53;;;8.10;99.90;;;;;;5050858;28;20466;-68
2022/06/21 02:55:46;;;;;;;23.20;21.27;;;8.10;99.90;;;;;;5047730;28;20451;-69
2022/06/21 02:58:20;;;;;;;24.00;21.93;;;8.20;99.90;;;;;;5053776;28;20623;-68
2022/06/21 03:00:49;;;;;;;22.77;20.83;;;8.40;99.90;;;;;;5052696;28;20463;-68
2022/06/21 03:03:20;;;;;;;25.83;21.30;;;8.60;99.90;;;;;;5052849;28;20486;-68
2022/06/21 03:05:50;;;;;;;23.27;21.10;;;8.70;99.90;;;;;;5050960;28;20481;-68
2022/06/21 03:08:17;;;;;;;23.07;21.13;;;8.80;99.90;;;;;;5061984;28;20462;-68
2022/06/21 03:10:48;;;;;;;22.03;20.43;;;8.80;99.90;;;;;;5052060;28;20831;-68
2022/06/21 03:13:19;;;;;;;24.33;22.33;;;8.80;99.90;;;;;;5053837;28;20474;-65
2022/06/21 03:15:50;;;;;;;22.93;20.90;;;8.80;99.90;;;;;;5054836;28;20465;-68
2022/06/21 03:18:23;;;;;;;22.17;20.57;;;8.90;99.90;;;;;;5056181;28;20466;-65
2022/06/21 03:20:51;;;;;;;23.20;21.10;;;8.70;99.90;;;;;;5056061;28;20484;-65
2022/06/21 03:23:20;;;;;;;22.60;20.77;;;8.80;99.90;;;;;;5058082;28;20489;-66
2022/06/21 03:25:50;;;;;;;24.07;22.00;;;8.90;99.90;;;;;;5055532;28;20954;-65
2022/06/21 03:28:33;;;;;;;23.83;21.70;;;8.80;99.90;;;;;;5054284;28;20914;-66
2022/06/21 03:31:08;;;;;;;23.40;21.63;;;8.70;99.90;;;;;;5047541;28;20466;-65
2022/06/21 03:33:37;;;;;;;23.70;21.60;;;8.80;99.90;;;;;;5052565;28;20541;-66
2022/06/21 03:36:08;;;;;;;24.90;22.90;;;8.80;99.90;;;;;;5058646;28;20822;-65
2022/06/21 03:38:37;;;;;;;23.93;21.90;;;8.80;99.90;;;;;;5047238;28;20468;-66
2022/06/21 03:43:53;;;;;;;22.60;20.77;;;8.70;99.90;;;;;;5049428;28;20624;-65
2022/06/21 03:46:26;;;;;;;23.47;21.87;;;8.70;99.90;;;;;;5054212;28;20471;-65
2022/06/21 03:48:58;;;;;;;23.57;21.67;;;8.60;99.90;;;;;;5054338;28;20491;-66
2022/06/21 03:51:30;;;;;;;23.87;22.03;;;8.50;99.90;;;;;;5062854;28;20524;-66
2022/06/21 03:54:02;;;;;;;24.90;23.00;;;8.50;99.90;;;;;;5052615;28;20467;-65
2022/06/21 03:56:33;;;;;;;24.37;22.57;;;8.40;99.90;;;;;;5056384;28;20921;-66
2022/06/21 03:59:09;;;;;;;24.50;22.60;;;8.40;99.90;;;;;;5052996;28;20462;-66
2022/06/21 04:01:44;;;;;;;25.30;23.50;;;8.40;99.90;;;;;;5052220;28;20544;-65
2022/06/21 04:04:15;;;;;;;25.13;23.00;;;8.40;99.90;;;;;;5029619;28;20490;-66
2022/06/21 04:06:47;;;;;;;24.60;22.80;;;8.40;99.90;;;;;;5027329;28;20474;-65
2022/06/21 04:09:24;;;;;;;26.33;23.90;;;8.50;99.90;;;;;;5025886;28;21002;-67
2022/06/21 04:11:59;;;;;;;25.77;23.57;;;8.60;99.90;;;;;;5027641;28;20478;-65
2022/06/21 04:14:32;;;;;;;25.80;23.50;;;8.70;99.90;;;;;;5028699;28;20466;-66
2022/06/21 04:17:05;;;;;;;24.40;22.60;;;8.90;99.90;;;;;;5028255;28;20451;-67
2022/06/21 04:19:39;;;;;;;25.77;23.60;;;9.00;99.90;;;;;;5029442;28;20474;-67
2022/06/21 04:22:13;;;;;;;24.30;22.67;;;9.00;99.90;;;;;;5031928;28;20764;-66
2022/06/21 04:24:46;;;;;;;25.70;23.70;;;9.00;99.90;;;;;;5031170;28;20491;-64
2022/06/21 04:27:20;;;;;;;25.30;23.40;;;9.10;99.90;;;;;;5042489;28;20494;-65
2022/06/21 04:29:51;;;;;;;25.27;23.23;;;9.10;99.90;;;;;;5056436;28;20968;-65
2022/06/21 04:32:27;;;;;;;25.40;23.50;;;9.30;99.90;;;;;;5055840;28;20958;-67
2022/06/21 04:34:59;;;;;;;27.53;25.33;;;9.40;99.90;;;;;;5032117;28;23177;-65
2022/06/21 04:37:30;;;;;;;27.47;24.83;;;9.80;99.90;;;;;;5031266;28;20478;-67
2022/06/21 04:40:02;;;;;;;29.00;26.10;;;10.00;99.90;;;;;;5032352;28;20475;-67
2022/06/21 04:42:35;;;;;;;27.60;24.63;;;10.20;99.90;;;;;;5032025;28;21014;-66
2022/06/21 04:45:07;;;;;;;30.83;27.77;;;10.50;99.90;;;;;;5031728;28;20532;-66
2022/06/21 04:47:41;;;;;;;29.57;26.67;;;10.70;99.90;;;;;;5031232;28;20997;-66
2022/06/21 04:50:21;;;;;;;26.77;24.60;;;11.00;99.90;;;;;;5032890;28;20454;-67
2022/06/21 04:52:53;;;;;;;28.43;25.90;;;11.30;99.90;;;;;;5031795;28;20827;-66
2022/06/21 04:55:25;;;;;;;27.37;25.07;;;11.50;99.90;;;;;;5032596;28;20473;-65
2022/06/21 04:57:52;;;;;;;29.83;26.20;;;11.60;99.90;;;;;;5031790;28;20459;-65
2022/06/21 05:00:21;;;;;;;27.70;25.40;;;11.70;99.90;;;;;;5032056;28;20572;-67
2022/06/21 05:02:53;;;;;;;28.87;26.30;;;11.90;99.90;;;;;;5029992;28;20464;-66
2022/06/21 05:05:25;;;;;;;28.00;25.60;;;12.00;99.90;;;;;;5031987;28;20910;-68
2022/06/21 05:07:55;;;;;;;28.03;25.13;;;12.20;99.90;;;;;;5030754;28;20463;-67
2022/06/21 05:10:26;;;;;;;28.40;25.97;;;12.30;99.90;;;;;;5030551;28;20488;-66
2022/06/21 05:12:55;;;;;;;27.37;25.20;;;12.40;99.90;;;;;;5030543;28;20459;-64
2022/06/21 05:15:26;;;;;;;27.23;25.23;;;12.60;99.90;;;;;;5030782;28;20464;-65
2022/06/21 05:18:00;;;;;;;26.93;24.67;;;12.60;99.90;;;;;;5030015;28;20563;-65
2022/06/21 05:20:30;;;;;;;25.87;23.47;;;12.80;99.90;;;;;;5030845;28;20464;-66
2022/06/21 05:23:02;;;;;;;25.50;23.37;;;12.90;99.90;;;;;;5031262;28;20835;-64
2022/06/21 05:25:32;;;;;;;25.97;23.57;;;13.00;99.90;;;;;;5057831;28;20904;-65
2022/06/21 05:28:02;;;;;;;25.27;23.37;;;13.00;99.90;;;;;;5058079;28;20470;-65
2022/06/21 05:30:39;;;;;;;25.87;23.40;;;13.20;99.90;;;;;;5050325;28;20459;-66
2022/06/21 05:33:14;;;;;;;22.60;20.70;;;13.30;99.90;;;;;;5030681;28;21131;-64
2022/06/21 05:35:42;;;;;;;21.43;19.97;;;13.30;99.90;;;;;;5030877;28;20468;-67
2022/06/21 05:38:15;;;;;;;22.03;20.23;;;13.50;99.90;;;;;;5030220;28;22423;-66
2022/06/21 05:40:48;;;;;;;21.80;19.80;;;13.70;99.90;;;;;;5030528;28;20462;-67
2022/06/21 05:43:17;;;;;;;21.67;19.77;;;13.90;99.90;;;;;;5031315;28;20468;-67
2022/06/21 05:45:50;;;;;;;20.07;18.13;;;14.00;99.90;;;;;;5030179;28;20512;-66
2022/06/21 05:48:24;;;;;;;20.43;18.90;;;14.20;99.90;;;;;;5028690;28;20463;-66
2022/06/21 05:50:52;;;;;;;20.33;18.73;;;14.40;99.90;;;;;;5030962;28;20462;-65
2022/06/21 05:53:26;;;;;;;20.87;19.37;;;14.50;99.90;;;;;;5048593;28;20467;-66
2022/06/21 05:55:53;;;;;;;20.50;18.47;;;14.70;99.90;;;;;;5055466;28;20851;-67
2022/06/21 05:58:25;;;;;;;20.03;18.17;;;14.90;99.90;;;;;;5046253;28;21048;-66
2022/06/21 06:00:58;;;;;;;19.93;18.30;;;15.10;99.90;;;;;;5027239;28;20560;-66
2022/06/21 06:03:30;;;;;;;22.90;19.20;;;15.20;99.90;;;;;;5028131;28;20468;-66
2022/06/21 06:06:02;;;;;;;18.80;17.20;;;15.30;99.90;;;;;;5027644;28;20484;-66
2022/06/21 06:08:33;;;;;;;19.63;18.13;;;15.50;99.90;;;;;;5027625;28;20487;-65
2022/06/21 06:11:02;;;;;;;20.77;18.93;;;15.60;99.90;;;;;;5028086;28;20467;-66
2022/06/21 06:13:33;;;;;;;21.07;19.03;;;15.80;99.90;;;;;;5026886;28;20460;-67
2022/06/21 06:16:05;;;;;;;21.63;19.80;;;16.00;99.90;;;;;;5027774;28;20465;-66
2022/06/21 06:18:47;;;;;;;18.67;17.20;;;16.20;99.90;;;;;;5027730;28;20471;-67
2022/06/21 06:21:18;;;;;;;22.63;18.10;;;16.30;99.90;;;;;;5041583;28;20866;-66
2022/06/21 06:23:50;;;;;;;22.70;18.80;;;16.40;99.90;;;;;;5051784;28;20554;-66
2022/06/21 06:26:21;;;;;;;19.53;18.07;;;16.60;99.90;;;;;;5054415;28;20506;-65
2022/06/21 06:28:52;;;;;;;20.13;17.70;;;16.70;99.90;;;;;;5033744;28;20470;-66
2022/06/21 06:31:23;;;;;;;19.73;18.23;;;16.80;99.90;;;;;;5028015;28;20470;-66
2022/06/21 06:33:55;;;;;;;20.47;18.77;;;16.90;99.90;;;;;;5027680;28;20467;-67
2022/06/21 06:36:25;;;;;;;20.70;19.10;;;17.00;99.90;;;;;;5027029;28;20472;-67
2022/06/21 06:38:52;;;;;;;20.73;18.50;;;17.10;99.90;;;;;;5028492;28;20462;-67
2022/06/21 06:41:27;;;;;;;24.27;18.83;;;17.30;99.90;;;;;;5029106;28;21044;-67
2022/06/21 06:43:57;;;;;;;20.53;18.77;;;17.50;99.90;;;;;;5028077;28;20466;-67
2022/06/21 06:46:29;;;;;;;19.80;18.10;;;17.60;99.90;;;;;;5028063;28;20483;-67
2022/06/21 06:49:06;;;;;;;21.43;19.37;;;17.80;99.90;;;;;;5027874;28;20959;-66
2022/06/21 06:51:52;;;;;;;19.80;17.83;;;17.90;99.90;;;;;;5027305;28;20456;-67
2022/06/21 06:54:32;;;;;;;20.47;18.80;;;18.00;99.90;;;;;;5028325;28;20456;-66
2022/06/21 06:57:06;;;;;;;19.07;17.53;;;18.10;99.90;;;;;;5027349;28;20518;-66
2022/06/21 06:59:33;;;;;;;19.77;18.37;;;18.10;99.90;;;;;;5028193;28;20470;-67
2022/06/21 07:02:05;;;;;;;18.90;17.40;;;18.20;99.90;;;;;;5027153;28;20468;-67
2022/06/21 07:04:37;;;;;;;20.03;18.33;;;18.40;99.90;;;;;;5027665;28;20492;-66
2022/06/21 07:07:12;;;;;;;18.07;16.83;;;18.40;99.90;;;;;;5027731;28;20456;-67
2022/06/21 07:09:46;;;;;;;19.07;17.47;;;18.50;99.90;;;;;;5027416;28;20479;-66
2022/06/21 07:12:17;;;;;;;19.33;17.40;;;18.70;99.90;;;;;;5027445;28;20846;-66
2022/06/21 07:14:45;;;;;;;17.73;16.53;;;18.90;99.90;;;;;;5026492;28;20460;-67
2022/06/21 07:17:18;;;;;;;23.93;17.57;;;19.10;99.90;;;;;;5027206;28;20460;-66
2022/06/21 07:19:47;;;;;;;18.80;17.30;;;19.10;99.90;;;;;;5027028;28;20472;-65
2022/06/21 07:22:18;;;;;;;17.97;16.50;;;19.50;99.90;;;;;;5038249;28;20470;-67
2022/06/21 07:24:51;;;;;;;18.40;16.87;;;19.70;99.90;;;;;;5056275;28;20692;-66
2022/06/21 07:27:21;;;;;;;19.00;17.10;;;19.80;99.90;;;;;;5052845;28;20460;-67
2022/06/21 07:29:56;;;;;;;18.20;16.67;;;20.00;99.90;;;;;;5044158;28;21160;-66
2022/06/21 07:32:26;;;;;;;18.77;16.90;;;20.10;99.90;;;;;;5026942;28;20831;-67
2022/06/21 07:34:58;;;;;;;19.40;17.57;;;19.90;99.90;;;;;;5024829;28;20455;-67
2022/06/21 07:37:30;;;;;;;18.97;17.33;;;19.90;99.90;;;;;;5025958;28;20452;-67
2022/06/21 07:40:03;;;;;;;18.50;17.20;;;20.00;99.90;;;;;;5026860;28;20475;-67
2022/06/21 07:42:34;;;;;;;19.30;16.63;;;19.90;99.90;;;;;;5026470;28;20460;-67
2022/06/21 07:45:07;;;;;;;18.80;17.27;;;20.20;99.90;;;;;;5026903;28;20483;-68
2022/06/21 07:47:39;;;;;;;18.30;16.70;;;20.40;99.90;;;;;;5027540;28;20464;-67
2022/06/21 07:50:12;;;;;;;19.03;17.47;;;20.50;99.90;;;;;;5026359;28;20736;-66
2022/06/21 07:52:45;;;;;;;18.87;17.47;;;20.80;99.90;;;;;;5025567;28;20957;-67
2022/06/21 07:55:17;;;;;;;18.67;17.00;;;20.90;99.90;;;;;;5024245;28;21076;-68
2022/06/21 07:57:49;;;;;;;17.60;16.40;;;21.00;99.90;;;;;;5025656;28;20471;-67
2022/06/21 08:00:18;;;;;;;18.23;17.00;;;21.10;99.90;;;;;;5024898;28;20456;-67
2022/06/21 08:08:30;;;;;;;17.97;16.47;;;22.30;99.40;;;;;;5026982;28;20497;-67
2022/06/21 08:11:01;;;;;;;17.53;16.23;;;23.10;98.40;;;;;;5025985;28;20472;-67
2022/06/21 08:13:30;;;;;;;17.60;16.60;;;24.30;96.50;;;;;;5027338;28;21022;-67
2022/06/21 08:16:04;;;;;;;17.47;16.37;;;25.10;93.00;;;;;;5026845;28;20468;-68
2022/06/21 08:18:34;;;;;;;17.53;16.43;;;24.30;89.30;;;;;;5026594;28;20552;-67
2022/06/21 08:21:07;;;;;;;17.57;16.27;;;24.70;88.00;;;;;;5026030;28;20493;-67
2022/06/21 08:23:41;;;;;;;19.33;16.27;;;25.20;83.50;;;;;;5026217;28;20463;-67
2022/06/21 08:26:13;;;;;;;17.13;15.97;;;25.40;85.00;;;;;;5025710;28;21067;-66
2022/06/21 08:28:46;;;;;;;18.03;16.40;;;25.50;86.00;;;;;;5052725;28;20468;-67
2022/06/21 08:31:19;;;;;;;17.90;16.90;;;25.30;83.00;;;;;;5012892;28;20475;-67
2022/06/21 08:33:51;;;;;;;17.90;16.60;;;25.20;81.80;;;;;;5019313;28;20758;-68
2022/06/21 08:36:25;;;;;;;17.93;16.37;;;25.30;82.70;;;;;;5019907;28;20472;-67
2022/06/21 08:38:59;;;;;;;18.37;17.03;;;25.70;80.70;;;;;;5022024;28;20489;-66
2022/06/21 08:41:55;;;;;;;18.17;16.57;;;25.20;80.50;;;;;;5021826;28;20471;-67
2022/06/21 08:48:26;;;;;;;19.23;17.93;;;26.30;75.90;;;;;;4981220;28;20460;-67
2022/06/21 08:51:05;;;;;;;18.90;17.63;;;27.00;77.90;;;;;;5020874;28;21001;-67
2022/06/21 08:53:49;;;;;;;18.37;17.10;;;26.00;75.30;;;;;;5023462;28;20484;-68
2022/06/21 08:56:22;;;;;;;19.17;17.80;;;25.70;74.80;;;;;;5040825;28;20471;-67
2022/06/21 08:59:03;;;;;;;19.07;17.90;;;26.10;76.70;;;;;;5018952;28;21108;-67
2022/06/21 09:01:35;;;;;;;18.40;17.30;;;26.70;71.70;;;;;;5044850;28;20459;-66
2022/06/21 09:04:15;;;;;;;18.37;17.27;;;27.10;71.80;;;;;;5051223;28;20467;-67
2022/06/21 09:06:58;;;;;;;18.87;17.77;;;28.00;71.60;;;;;;5022380;28;20912;-67
2022/06/21 09:09:40;;;;;;;18.30;17.20;;;27.60;67.80;;;;;;5022914;28;20502;-67
2022/06/21 09:12:16;;;;;;;18.83;17.47;;;27.00;66.10;;;;;;5021985;28;20467;-66
2022/06/21 09:15:01;;;;;;;18.57;17.40;;;27.10;65.90;;;;;;5022790;28;20855;-66
2022/06/21 09:17:41;;;;;;;18.43;17.30;;;26.90;67.10;;;;;;5022655;28;21232;-68
2022/06/21 09:20:17;;;;;;;18.20;17.00;;;26.90;63.40;;;;;;5023416;28;20459;-67
2022/06/21 09:22:59;;;;;;;17.43;16.50;;;26.50;66.30;;;;;;5022908;28;20475;-67
2022/06/21 09:25:32;;;;;;;16.60;15.60;;;27.10;64.90;;;;;;5023360;28;20549;-67
2022/06/21 09:28:09;;;;;;;17.83;16.63;;;27.90;62.00;;;;;;5023621;28;20978;-68
2022/06/21 09:30:41;;;;;;;17.63;16.63;;;28.00;61.20;;;;;;5022355;28;21969;-67
2022/06/21 09:33:14;;;;;;;17.27;16.27;;;27.90;62.50;;;;;;5023491;28;20609;-66
2022/06/21 09:35:47;;;;;;;18.80;17.60;;;27.40;61.00;;;;;;5023782;28;20482;-67
2022/06/21 09:38:25;;;;;;;17.37;16.37;;;27.50;61.40;;;;;;5023422;28;20708;-67
2022/06/21 09:41:01;;;;;;;18.23;16.77;;;27.20;62.10;;;;;;5024024;28;20584;-68
2022/06/21 09:43:37;;;;;;;17.80;16.70;;;27.10;59.40;;;;;;5023051;28;20479;-67
2022/06/21 09:46:12;;;;;;;18.13;16.93;;;26.90;59.40;;;;;;5022882;28;21165;-67
2022/06/21 09:48:46;;;;;;;18.80;17.70;;;27.00;60.80;;;;;;5023204;28;22481;-67
2022/06/21 09:51:18;;;;;;;17.20;16.07;;;27.30;59.20;;;;;;5023419;28;21150;-67
2022/06/21 09:53:49;;;;;;;17.87;16.80;;;27.20;62.10;;;;;;5022407;28;20467;-67
2022/06/21 09:56:26;;;;;;;18.37;16.90;;;27.70;59.20;;;;;;5020683;28;20470;-68
2022/06/21 09:58:59;;;;;;;18.90;17.70;;;27.60;59.10;;;;;;5023496;28;20549;-68
2022/06/21 10:01:33;;;;;;;18.17;16.87;;;28.20;59.40;;;;;;5023064;28;21787;-67
2022/06/21 10:04:13;;;;;;;17.67;16.57;;;29.00;58.70;;;;;;5023693;28;20450;-69
2022/06/21 10:06:45;;;;;;;18.43;17.23;;;29.10;56.20;;;;;;5022763;28;20494;-68
2022/06/21 10:09:29;;;;;;;17.97;16.70;;;29.40;55.70;;;;;;5022641;28;20496;-67
2022/06/21 10:12:13;;;;;;;18.50;17.40;;;28.80;57.40;;;;;;5023082;28;21131;-69
2022/06/21 10:14:53;;;;;;;16.90;15.90;;;28.40;57.40;;;;;;5023699;28;20478;-67
2022/06/21 10:17:47;;;;;;;17.20;16.30;;;28.30;55.70;;;;;;5021389;28;20585;-68
2022/06/21 10:20:40;;;;;;;17.20;16.30;;;28.10;57.90;;;;;;5022502;28;20463;-66
2022/06/21 10:23:29;;;;;;;18.17;16.70;;;28.20;56.80;;;;;;5022246;28;20798;-67
2022/06/21 10:26:14;;;;;;;17.47;16.10;;;27.80;57.20;;;;;;5020928;28;20476;-68
2022/06/21 10:29:00;;;;;;;17.57;16.40;;;27.60;58.70;;;;;;5022001;28;21175;-67
2022/06/21 10:31:56;;;;;;;16.60;15.50;;;27.70;57.30;;;;;;5021055;28;22808;-67
2022/06/21 10:34:45;;;;;;;16.60;15.60;;;28.40;56.90;;;;;;5021417;28;20693;-67
2022/06/21 10:37:39;;;;;;;17.10;15.53;;;27.80;55.50;;;;;;5022161;28;20494;-67
2022/06/21 10:40:36;;;;;;;16.20;15.20;;;27.30;56.10;;;;;;5022078;28;21358;-67
2022/06/21 10:43:26;;;;;;;16.50;15.47;;;27.00;56.00;;;;;;5021552;28;20471;-67
2022/06/21 10:45:57;;;;;;;16.77;15.77;;;26.80;56.60;;;;;;5019946;28;20443;-67
2022/06/21 10:49:00;;;;;;;16.50;15.60;;;26.30;57.60;;;;;;5021184;28;20473;-67
2022/06/21 10:51:37;;;;;;;16.40;15.60;;;26.10;58.10;;;;;;5021502;28;21443;-67
2022/06/21 10:54:19;;;;;;;16.70;15.60;;;25.70;58.20;;;;;;5021851;28;20761;-67
2022/06/21 10:57:10;;;;;;;17.50;16.20;;;25.70;58.40;;;;;;5020172;28;20478;-67
2022/06/21 11:03:00;;;;;;;17.80;16.60;;;25.80;58.00;;;;;;5022334;28;20558;-67
2022/06/21 11:05:35;;;;;;;16.90;15.90;;;25.90;57.50;;;;;;5021771;28;20459;-67
2022/06/21 11:08:11;;;;;;;18.70;17.50;;;26.40;57.70;;;;;;5022110;28;20471;-67
2022/06/21 11:10:50;;;;;;;17.33;16.00;;;27.30;56.10;;;;;;5021546;28;20486;-68
2022/06/21 11:13:20;;;;;;;17.60;16.40;;;29.00;54.50;;;;;;5021700;28;20477;-67
2022/06/21 11:16:00;;;;;;;18.00;16.80;;;30.20;52.10;;;;;;5022195;28;20490;-68
2022/06/21 11:18:49;;;;;;;17.03;15.97;;;30.20;49.10;;;;;;5021911;28;20469;-67
2022/06/21 11:21:30;;;;;;;16.93;16.00;;;29.50;51.30;;;;;;5021918;28;20586;-68
2022/06/21 11:24:09;;;;;;;17.13;16.23;;;29.40;52.60;;;;;;5021700;28;20467;-68
2022/06/21 11:26:46;;;;;;;17.20;16.00;;;29.20;51.20;;;;;;5021348;28;20478;-68
2022/06/21 11:29:24;;;;;;;16.70;15.70;;;29.10;50.60;;;;;;5020394;28;21530;-67
2022/06/21 11:31:59;;;;;;;16.77;15.63;;;28.50;52.60;;;;;;5021713;28;20499;-67
2022/06/21 11:34:38;;;;;;;16.80;15.70;;;29.20;51.90;;;;;;5021456;28;20463;-67
2022/06/21 11:37:17;;;;;;;16.97;16.07;;;30.20;51.40;;;;;;5022071;28;20549;-68
2022/06/21 11:39:52;;;;;;;16.63;15.73;;;30.10;51.50;;;;;;5021154;28;20893;-68
2022/06/21 11:42:26;;;;;;;17.13;16.03;;;29.90;50.30;;;;;;5021966;28;21047;-68
2022/06/21 11:45:14;;;;;;;17.90;16.67;;;30.40;50.20;;;;;;5021686;28;20718;-67
2022/06/21 11:48:21;;;;;;;16.53;15.60;;;30.60;49.30;;;;;;5021774;28;20455;-68
2022/06/21 11:50:59;;;;;;;17.80;16.73;;;30.00;49.00;;;;;;4963288;28;20453;-67
2022/06/21 11:53:44;;;;;;;16.00;15.20;;;29.50;50.10;;;;;;5047346;28;21041;-67
2022/06/21 11:56:19;;;;;;;16.83;15.63;;;29.30;50.90;;;;;;5043963;28;20498;-67
2022/06/21 11:58:51;;;;;;;17.20;16.20;;;29.00;49.00;;;;;;5019365;28;20474;-68
2022/06/21 12:01:24;;;;;;;16.80;15.90;;;28.60;49.80;;;;;;5019900;28;20463;-69
2022/06/21 12:04:03;;;;;;;16.20;15.23;;;28.20;50.10;;;;;;5020797;28;20478;-69
2022/06/21 12:06:37;;;;;;;17.00;15.97;;;27.90;50.80;;;;;;5021856;28;20759;-69
2022/06/21 12:09:12;;;;;;;17.50;16.50;;;27.50;52.30;;;;;;5020671;28;20919;-67
2022/06/21 12:11:51;;;;;;;17.30;16.20;;;28.30;50.50;;;;;;5020789;28;20462;-68
2022/06/21 12:14:37;;;;;;;15.80;14.90;;;28.40;50.30;;;;;;5021383;28;21296;-68
2022/06/21 12:17:12;;;;;;;16.73;15.83;;;28.60;51.50;;;;;;5020678;28;20495;-67
2022/06/21 12:19:41;;;;;;;17.50;16.60;;;29.00;51.70;;;;;;5021900;28;20546;-68
2022/06/21 12:22:29;;;;;;;16.63;15.70;;;30.20;50.10;;;;;;5021535;28;20578;-68
2022/06/21 12:24:56;;;;;;;16.20;15.40;;;30.40;48.40;;;;;;5021503;28;20502;-68
2022/06/21 12:27:24;;;;;;;17.40;15.80;;;30.80;47.70;;;;;;5021521;28;20471;-69
2022/06/21 12:29:56;;;;;;;16.10;15.30;;;31.10;46.80;;;;;;5021201;28;20470;-69
2022/06/21 12:32:26;;;;;;;16.80;15.80;;;32.20;48.40;;;;;;5020954;28;20468;-68
2022/06/21 12:35:01;;;;;;;17.50;16.40;;;33.40;45.80;;;;;;5020681;28;20473;-68
2022/06/21 12:37:35;;;;;;;17.07;15.80;;;32.80;43.90;;;;;;5021129;28;20850;-68
2022/06/21 12:40:14;;;;;;;16.50;15.50;;;32.50;43.60;;;;;;5021254;28;20812;-69
2022/06/21 12:42:53;;;;;;;17.77;16.67;;;32.40;44.20;;;;;;5024959;28;20462;-68
2022/06/21 12:45:36;;;;;;;15.50;14.60;;;31.80;43.40;;;;;;5025160;28;20460;-68
2022/06/21 12:48:18;;;;;;;16.23;15.23;;;30.80;43.90;;;;;;5024318;28;20469;-69
2022/06/21 12:50:55;;;;;;;16.93;15.73;;;31.10;45.00;;;;;;5024223;28;20812;-68
2022/06/21 12:54:02;;;;;;;15.50;14.40;;;31.80;43.00;;;;;;5044818;28;20475;-69
2022/06/21 12:56:42;;;;;;;18.00;16.70;;;31.30;43.80;;;;;;5048839;28;20498;-69
2022/06/21 12:59:32;;;;;;;16.10;15.07;;;32.50;43.10;;;;;;5024077;28;20681;-68
2022/06/21 13:02:23;;;;;;;16.23;15.33;;;32.90;43.10;;;;;;5023876;28;20833;-69
2022/06/21 13:05:09;;;;;;;16.43;15.50;;;32.40;42.30;;;;;;5020920;28;20824;-69
2022/06/21 13:08:08;;;;;;;15.77;14.77;;;30.90;42.70;;;;;;5023801;28;20701;-69
2022/06/21 13:10:43;;;;;;;16.23;15.30;;;30.60;43.50;;;;;;5023273;28;20629;-68
2022/06/21 13:13:32;;;;;;;16.97;15.97;;;30.30;43.60;;;;;;5023729;28;20997;-68
2022/06/21 13:16:11;;;;;;;14.77;13.83;;;29.70;44.20;;;;;;5024244;28;21116;-68
2022/06/21 13:19:08;;;;;;;16.60;15.70;;;30.50;43.70;;;;;;5053012;28;20894;-68
2022/06/21 13:21:46;;;;;;;16.50;15.10;;;30.70;43.80;;;;;;5045125;28;20479;-68
2022/06/21 13:24:31;;;;;;;14.97;14.13;;;30.20;43.30;;;;;;5024066;28;20463;-67